Time,TemperatureF,DewpointF,PressureIn,WindDirection,WindDirectionDegrees,WindSpeedMPH,WindSpeedGustMPH,Humidity,HourlyPrecipIn,Conditions,Clouds,dailyrainin,SoftwareType,DateUTC
2013-01-07 00:11:00,32.7,26.6,29.73,SSW,202,2.2,-999.0,78,-99.99,,,0.00,Acu-Link.com,2013-01-07 05:11:00,
2013-01-07 00:26:00,33.4,27.0,29.73,WNW,292,3.8,-999.0,77,-99.99,,,0.00,Acu-Link.com,2013-01-07 05:26:00,
2013-01-07 00:42:00,33.3,27.2,29.73,West,270,6.7,-999.0,78,-99.99,,,0.00,Acu-Link.com,2013-01-07 05:42:00,
2013-01-07 00:57:00,33.4,27.0,29.74,ENE,67,1.6,-999.0,77,-99.99,,,0.00,Acu-Link.com,2013-01-07 05:57:00,
2013-01-07 01:12:00,33.4,27.0,29.74,NNW,337,1.6,-999.0,77,-99.99,,,0.00,Acu-Link.com,2013-01-07 06:12:00,
2013-01-07 01:27:00,34.3,27.3,29.75,North,0,1.6,-999.0,75,-99.99,,,0.00,Acu-Link.com,2013-01-07 06:27:00,
2013-01-07 01:42:00,34.0,27.2,29.76,NNE,22,3.1,-999.0,76,-99.99,,,0.00,Acu-Link.com,2013-01-07 06:42:00,
2013-01-07 01:58:00,33.4,27.0,29.76,WNW,292,2.7,-999.0,77,-99.99,,,0.00,Acu-Link.com,2013-01-07 06:58:00,
2013-01-07 02:13:00,33.6,27.5,29.77,West,270,1.1,-999.0,78,-99.99,,,0.00,Acu-Link.com,2013-01-07 07:13:00,
2013-01-07 02:28:00,34.0,27.5,29.77,West,270,4.3,-999.0,77,-99.99,,,0.00,Acu-Link.com,2013-01-07 07:28:00,
2013-01-07 02:43:00,33.6,27.5,29.77,SSW,202,2.2,-999.0,78,-99.99,,,0.00,Acu-Link.com,2013-01-07 07:43:00,
2013-01-07 02:58:00,33.3,27.5,29.77,WNW,292,1.6,-999.0,79,-99.99,,,0.00,Acu-Link.com,2013-01-07 07:58:00,
2013-01-07 03:14:00,33.1,27.6,29.77,NE,45,1.6,-999.0,80,-99.99,,,0.00,Acu-Link.com,2013-01-07 08:14:00,
2013-01-07 03:29:00,32.2,27.0,29.78,NE,45,0.0,-999.0,81,-99.99,,,0.00,Acu-Link.com,2013-01-07 08:29:00,
2013-01-07 03:44:00,32.5,28.0,29.78,NNW,337,3.8,-999.0,83,-99.99,,,0.00,Acu-Link.com,2013-01-07 08:44:00,
2013-01-07 03:59:00,33.3,28.1,29.78,WNW,292,2.2,-999.0,81,-99.99,,,0.00,Acu-Link.com,2013-01-07 08:59:00,
2013-01-07 04:14:00,33.3,28.1,29.79,WNW,292,6.7,-999.0,81,-99.99,,,0.00,Acu-Link.com,2013-01-07 09:14:00,
2013-01-07 04:29:00,34.0,28.8,29.80,West,270,4.3,-999.0,81,-99.99,,,0.00,Acu-Link.com,2013-01-07 09:29:00,
2013-01-07 04:45:00,34.0,28.8,29.81,West,270,4.3,-999.0,81,-99.99,,,0.00,Acu-Link.com,2013-01-07 09:45:00,
2013-01-07 05:00:00,34.2,29.0,29.82,West,270,3.1,-999.0,81,-99.99,,,0.00,Acu-Link.com,2013-01-07 10:00:00,
2013-01-07 05:15:00,34.2,29.0,29.82,West,270,2.7,-999.0,81,-99.99,,,0.00,Acu-Link.com,2013-01-07 10:15:00,
2013-01-07 05:30:00,33.6,28.7,29.82,WNW,292,2.2,-999.0,82,-99.99,,,0.00,Acu-Link.com,2013-01-07 10:30:00,
2013-01-07 05:45:00,33.1,28.5,29.83,West,270,3.1,-999.0,83,-99.99,,,0.00,Acu-Link.com,2013-01-07 10:45:00,
2013-01-07 06:01:00,32.7,28.4,29.85,WNW,292,3.1,-999.0,84,-99.99,,,0.00,Acu-Link.com,2013-01-07 11:01:00,
2013-01-07 06:16:00,33.1,28.8,29.85,SSW,202,3.8,-999.0,84,-99.99,,,0.00,Acu-Link.com,2013-01-07 11:16:00,
2013-01-07 06:31:00,32.7,28.4,29.87,WSW,247,4.7,-999.0,84,-99.99,,,0.00,Acu-Link.com,2013-01-07 11:31:00,
2013-01-07 06:46:00,32.9,28.6,29.87,West,270,5.8,-999.0,84,-99.99,,,0.00,Acu-Link.com,2013-01-07 11:46:00,
2013-01-07 07:01:00,32.2,28.2,29.89,NW,315,2.7,-999.0,85,-99.99,,,0.00,Acu-Link.com,2013-01-07 12:01:00,
2013-01-07 07:17:00,31.8,28.1,29.90,WNW,292,2.2,-999.0,86,-99.99,,,0.00,Acu-Link.com,2013-01-07 12:17:00,
2013-01-07 07:32:00,32.0,28.3,29.90,WNW,292,2.2,-999.0,86,-99.99,,,0.00,Acu-Link.com,2013-01-07 12:32:00,
2013-01-07 07:47:00,32.5,28.0,29.91,West,270,2.7,-999.0,83,-99.99,,,0.00,Acu-Link.com,2013-01-07 12:47:00,
2013-01-07 08:02:00,33.6,27.5,29.93,NE,45,3.1,-999.0,78,-99.99,,,0.00,Acu-Link.com,2013-01-07 13:02:00,
2013-01-07 08:18:00,35.1,27.3,29.94,WNW,292,2.2,-999.0,73,-99.99,,,0.00,Acu-Link.com,2013-01-07 13:18:00,
2013-01-07 08:33:00,34.0,26.3,29.95,NW,315,5.1,-999.0,73,-99.99,,,0.00,Acu-Link.com,2013-01-07 13:33:00,
2013-01-07 08:48:00,34.2,26.1,29.97,WNW,292,3.1,-999.0,72,-99.99,,,0.00,Acu-Link.com,2013-01-07 13:48:00,
2013-01-07 09:03:00,34.5,25.8,29.98,NW,315,6.7,-999.0,70,-99.99,,,0.00,Acu-Link.com,2013-01-07 14:03:00,
2013-01-07 09:18:00,34.9,25.1,29.99,NW,315,6.3,-999.0,67,-99.99,,,0.00,Acu-Link.com,2013-01-07 14:18:00,
2013-01-07 09:34:00,35.2,24.7,30.01,NNE,22,3.8,-999.0,65,-99.99,,,0.00,Acu-Link.com,2013-01-07 14:34:00,
2013-01-07 09:49:00,34.9,24.3,30.03,NNW,337,5.8,-999.0,65,-99.99,,,0.00,Acu-Link.com,2013-01-07 14:49:00,
2013-01-07 10:04:00,34.7,24.2,30.04,WNW,292,3.1,-999.0,65,-99.99,,,0.00,Acu-Link.com,2013-01-07 15:04:00,
2013-01-07 10:19:00,35.4,24.1,30.04,NNE,22,4.3,-999.0,63,-99.99,,,0.00,Acu-Link.com,2013-01-07 15:19:00,
2013-01-07 10:34:00,35.8,23.7,30.03,WNW,292,3.8,-999.0,61,-99.99,,,0.00,Acu-Link.com,2013-01-07 15:34:00,
2013-01-07 10:50:00,35.6,23.9,30.04,WNW,292,3.8,-999.0,62,-99.99,,,0.00,Acu-Link.com,2013-01-07 15:50:00,
2013-01-07 11:05:00,35.6,22.7,30.04,North,0,4.7,-999.0,59,-99.99,,,0.00,Acu-Link.com,2013-01-07 16:05:00,
2013-01-07 11:20:00,35.4,22.5,30.05,North,0,2.2,-999.0,59,-99.99,,,0.00,Acu-Link.com,2013-01-07 16:20:00,
2013-01-07 11:35:00,35.4,22.5,30.05,North,0,2.2,-999.0,59,-99.99,,,0.00,Acu-Link.com,2013-01-07 16:35:00,
2013-01-07 11:51:00,35.8,22.1,30.06,NNW,337,6.3,-999.0,57,-99.99,,,0.00,Acu-Link.com,2013-01-07 16:51:00,
2013-01-07 12:06:00,35.4,21.3,30.06,WNW,292,5.1,-999.0,56,-99.99,,,0.00,Acu-Link.com,2013-01-07 17:06:00,
2013-01-07 12:21:00,34.7,21.5,30.06,WNW,292,2.2,-999.0,58,-99.99,,,0.00,Acu-Link.com,2013-01-07 17:21:00,
2013-01-07 12:36:00,35.4,21.3,30.06,WNW,292,3.1,-999.0,56,-99.99,,,0.00,Acu-Link.com,2013-01-07 17:36:00,
2013-01-07 12:51:00,35.1,21.0,30.07,SSE,157,2.7,-999.0,56,-99.99,,,0.00,Acu-Link.com,2013-01-07 17:51:00,
2013-01-07 13:07:00,35.1,20.5,30.07,NW,315,3.1,-999.0,55,-99.99,,,0.00,Acu-Link.com,2013-01-07 18:07:00,
2013-01-07 13:22:00,34.9,19.9,30.07,NNE,22,2.2,-999.0,54,-99.99,,,0.00,Acu-Link.com,2013-01-07 18:22:00,
2013-01-07 13:37:00,35.1,20.1,30.07,NNW,337,5.1,-999.0,54,-99.99,,,0.00,Acu-Link.com,2013-01-07 18:37:00,
2013-01-07 13:52:00,35.4,19.1,30.08,WNW,292,3.1,-999.0,51,-99.99,,,0.00,Acu-Link.com,2013-01-07 18:52:00,
2013-01-07 14:07:00,35.4,18.7,30.09,West,270,1.6,-999.0,50,-99.99,,,0.00,Acu-Link.com,2013-01-07 19:07:00,
2013-01-07 14:23:00,34.9,17.7,30.09,West,270,1.6,-999.0,49,-99.99,,,0.00,Acu-Link.com,2013-01-07 19:23:00,
2013-01-07 14:38:00,34.7,18.0,30.10,North,0,1.6,-999.0,50,-99.99,,,0.00,Acu-Link.com,2013-01-07 19:38:00,
2013-01-07 14:53:00,34.3,17.2,30.11,NNW,337,1.1,-999.0,49,-99.99,,,0.00,Acu-Link.com,2013-01-07 19:53:00,
2013-01-07 15:08:00,34.9,16.7,30.11,NW,315,2.2,-999.0,47,-99.99,,,0.00,Acu-Link.com,2013-01-07 20:08:00,
2013-01-07 15:24:00,35.1,16.4,30.11,WNW,292,0.0,-999.0,46,-99.99,,,0.00,Acu-Link.com,2013-01-07 20:24:00,
2013-01-07 15:39:00,33.4,14.4,30.12,WNW,292,3.1,-999.0,45,-99.99,,,0.00,Acu-Link.com,2013-01-07 20:39:00,
2013-01-07 15:54:00,32.5,14.6,30.12,WSW,247,1.1,-999.0,47,-99.99,,,0.00,Acu-Link.com,2013-01-07 20:54:00,
2013-01-07 16:09:00,31.3,13.4,30.13,WNW,292,0.0,-999.0,47,-99.99,,,0.00,Acu-Link.com,2013-01-07 21:09:00,
2013-01-07 16:24:00,30.0,13.2,30.13,West,270,0.0,-999.0,49,-99.99,,,0.00,Acu-Link.com,2013-01-07 21:24:00,
2013-01-07 16:40:00,29.5,13.2,30.14,WNW,292,1.1,-999.0,50,-99.99,,,0.00,Acu-Link.com,2013-01-07 21:40:00,
2013-01-07 16:55:00,29.3,12.1,30.14,West,270,1.6,-999.0,48,-99.99,,,0.00,Acu-Link.com,2013-01-07 21:55:00,
2013-01-07 17:10:00,28.9,12.2,30.14,West,270,1.6,-999.0,49,-99.99,,,0.00,Acu-Link.com,2013-01-07 22:10:00,
2013-01-07 17:25:00,28.8,11.6,30.14,NNE,22,2.2,-999.0,48,-99.99,,,0.00,Acu-Link.com,2013-01-07 22:25:00,
2013-01-07 17:40:00,28.4,12.6,30.15,West,270,2.7,-999.0,51,-99.99,,,0.00,Acu-Link.com,2013-01-07 22:40:00,
2013-01-07 17:56:00,28.4,12.6,30.15,West,270,2.2,-999.0,51,-99.99,,,0.00,Acu-Link.com,2013-01-07 22:56:00,
2013-01-07 18:11:00,27.7,12.4,30.15,ESE,112,0.0,-999.0,52,-99.99,,,0.00,Acu-Link.com,2013-01-07 23:11:00,
2013-01-07 18:26:00,26.2,12.7,30.16,NW,315,0.0,-999.0,56,-99.99,,,0.00,Acu-Link.com,2013-01-07 23:26:00,
2013-01-07 18:41:00,25.5,12.0,30.15,NNW,337,0.0,-999.0,56,-99.99,,,0.00,Acu-Link.com,2013-01-07 23:41:00,
2013-01-07 18:57:00,25.2,12.9,30.16,South,180,1.6,-999.0,59,-99.99,,,0.00,Acu-Link.com,2013-01-07 23:57:00,
2013-01-07 19:12:00,25.0,13.1,30.16,SSW,202,1.1,-999.0,60,-99.99,,,0.00,Acu-Link.com,2013-01-08 00:12:00,
2013-01-07 19:27:00,25.2,13.3,30.16,West,270,2.2,-999.0,60,-99.99,,,0.00,Acu-Link.com,2013-01-08 00:27:00,
2013-01-07 19:42:00,25.5,12.8,30.15,East,90,2.2,-999.0,58,-99.99,,,0.00,Acu-Link.com,2013-01-08 00:42:00,
2013-01-07 19:58:00,23.7,14.4,30.15,West,270,1.6,-999.0,67,-99.99,,,0.00,Acu-Link.com,2013-01-08 00:58:00,
2013-01-07 20:13:00,24.8,12.9,30.15,WNW,292,2.2,-999.0,60,-99.99,,,0.00,Acu-Link.com,2013-01-08 01:13:00,
2013-01-07 20:28:00,23.4,13.4,30.15,NW,315,0.0,-999.0,65,-99.99,,,0.00,Acu-Link.com,2013-01-08 01:28:00,
2013-01-07 20:43:00,22.3,14.0,30.15,SW,225,0.0,-999.0,70,-99.99,,,0.00,Acu-Link.com,2013-01-08 01:43:00,
2013-01-07 20:58:00,21.4,14.4,30.15,SSE,157,0.0,-999.0,74,-99.99,,,0.00,Acu-Link.com,2013-01-08 01:58:00,
2013-01-07 21:14:00,20.7,14.3,30.14,ESE,112,0.0,-999.0,76,-99.99,,,0.00,Acu-Link.com,2013-01-08 02:14:00,
2013-01-07 21:29:00,21.2,14.5,30.14,West,270,2.2,-999.0,75,-99.99,,,0.00,Acu-Link.com,2013-01-08 02:29:00,
2013-01-07 21:44:00,20.7,14.6,30.15,South,180,0.0,-999.0,77,-99.99,,,0.00,Acu-Link.com,2013-01-08 02:44:00,
2013-01-07 21:59:00,19.9,14.5,30.14,West,270,1.6,-999.0,79,-99.99,,,0.00,Acu-Link.com,2013-01-08 02:59:00,
2013-01-07 22:14:00,19.9,14.8,30.14,WNW,292,1.6,-999.0,80,-99.99,,,0.00,Acu-Link.com,2013-01-08 03:14:00,
2013-01-07 22:30:00,19.6,14.4,30.14,NW,315,0.0,-999.0,80,-99.99,,,0.00,Acu-Link.com,2013-01-08 03:30:00,
2013-01-07 22:45:00,18.9,14.3,30.14,WNW,292,1.6,-999.0,82,-99.99,,,0.00,Acu-Link.com,2013-01-08 03:45:00,
2013-01-07 23:15:00,18.3,14.8,30.14,West,270,1.6,-999.0,86,-99.99,,,0.00,Acu-Link.com,2013-01-08 04:15:00,
2013-01-07 23:31:00,18.1,14.4,30.13,North,0,1.1,-999.0,85,-99.99,,,0.00,Acu-Link.com,2013-01-08 04:31:00,
2013-01-07 23:46:00,18.0,15.0,30.13,WNW,292,1.6,-999.0,88,-99.99,,,0.00,Acu-Link.com,2013-01-08 04:46:00,